createdAt,value
2023-01-08T00:00:08.994Z,9.00
2023-01-08T00:00:57.115Z,9.18
2023-01-08T00:01:38.764Z,8.82
2023-01-08T00:02:20.421Z,8.90
2023-01-08T00:03:02.307Z,9.30
2023-01-08T00:03:44.430Z,8.93
2023-01-08T00:04:26.753Z,8.57
2023-01-08T00:05:11.415Z,9.13
2023-01-08T00:05:53.187Z,8.55
2023-01-08T00:06:35.659Z,8.20
2023-01-08T00:07:17.431Z,8.50
2023-01-08T00:07:59.107Z,8.38
2023-01-08T00:08:41.668Z,9.32
2023-01-08T00:09:23.502Z,9.63
2023-01-08T00:10:05.732Z,9.38
2023-01-08T00:10:54.276Z,9.48
2023-01-08T00:11:36.064Z,9.52
2023-01-08T00:12:17.868Z,9.38
2023-01-08T00:12:59.517Z,10.00
2023-01-08T00:13:41.499Z,9.52
2023-01-08T00:14:23.180Z,9.25
2023-01-08T00:15:05.633Z,9.00
2023-01-08T00:15:47.577Z,9.05
2023-01-08T00:16:55.105Z,9.07
2023-01-08T00:17:36.827Z,9.65
2023-01-08T00:18:18.843Z,10.32
2023-01-08T00:19:00.715Z,9.85
2023-01-08T00:19:43.063Z,9.57
2023-01-08T00:20:25.660Z,9.38
2023-01-08T00:21:07.409Z,10.13
2023-01-08T00:21:49.043Z,10.48
2023-01-08T00:22:31.170Z,9.45
2023-01-08T00:23:14.238Z,9.90
2023-01-08T00:23:56.038Z,9.50
2023-01-08T00:24:37.794Z,8.70
2023-01-08T00:25:20.478Z,8.57
2023-01-08T00:26:03.653Z,8.05
2023-01-08T00:26:45.295Z,8.32
2023-01-08T00:27:27.343Z,8.38
2023-01-08T00:28:09.505Z,7.93
2023-01-08T00:28:51.252Z,7.85
2023-01-08T00:29:32.904Z,7.47
2023-01-08T00:30:14.615Z,7.57
2023-01-08T00:30:56.386Z,7.38
2023-01-08T00:31:38.140Z,6.85
2023-01-08T00:32:19.761Z,8.02
2023-01-08T00:33:01.521Z,7.72
2023-01-08T00:33:43.318Z,7.85
2023-01-08T00:34:25.008Z,7.38
2023-01-08T00:35:07.103Z,6.78
2023-01-08T00:35:48.858Z,7.20
2023-01-08T00:36:30.633Z,7.10
2023-01-08T00:37:12.398Z,7.72
2023-01-08T00:37:54.098Z,6.95
2023-01-08T00:38:35.973Z,7.82
2023-01-08T00:39:17.635Z,7.68
2023-01-08T00:39:59.233Z,7.68
2023-01-08T00:40:41.238Z,8.23
2023-01-08T00:41:22.976Z,9.90
2023-01-08T00:42:04.966Z,11.15
2023-01-08T00:42:47.442Z,11.52
2023-01-08T00:43:29.161Z,10.75
2023-01-08T00:44:10.934Z,11.30
2023-01-08T00:44:52.636Z,10.43
2023-01-08T00:45:34.616Z,11.40
2023-01-08T00:46:16.624Z,11.98
2023-01-08T00:46:58.405Z,11.02
2023-01-08T00:47:40.368Z,11.43
2023-01-08T00:48:23.298Z,12.18
2023-01-08T00:49:05.624Z,11.65
2023-01-08T00:50:12.665Z,11.25
2023-01-08T00:50:55.094Z,11.05
2023-01-08T00:51:36.842Z,11.15
2023-01-08T00:52:18.529Z,11.07
2023-01-08T00:53:00.836Z,11.18
2023-01-08T00:53:42.685Z,10.38
2023-01-08T00:54:24.381Z,17.65
2023-01-08T00:55:07.128Z,17.38
2023-01-08T00:55:49.660Z,14.85
2023-01-08T00:56:31.514Z,12.43
2023-01-08T00:57:13.280Z,12.82
2023-01-08T00:57:55.966Z,14.25
2023-01-08T00:58:39.088Z,13.07
2023-01-08T00:59:20.837Z,12.38
2023-01-08T01:00:06.096Z,11.82
2023-01-08T01:00:50.960Z,11.48
2023-01-08T01:01:35.949Z,11.90
2023-01-08T01:02:20.214Z,10.98
2023-01-08T01:03:04.401Z,12.48
2023-01-08T01:03:47.540Z,11.40
2023-01-08T01:04:31.375Z,10.70
2023-01-08T01:05:17.272Z,11.25
2023-01-08T01:06:07.103Z,11.65
2023-01-08T01:06:48.869Z,11.82
2023-01-08T01:07:32.609Z,10.52
2023-01-08T01:08:17.762Z,11.27
2023-01-08T01:09:33.711Z,11.70
2023-01-08T04:42:50.609Z,5.97
2023-01-08T04:43:32.354Z,6.03
2023-01-08T04:44:13.915Z,6.35
2023-01-08T04:44:55.635Z,6.13
2023-01-08T04:45:37.323Z,6.22
2023-01-08T04:46:18.973Z,6.93
2023-01-08T04:47:00.779Z,7.00
2023-01-08T04:47:42.453Z,7.65
2023-01-08T04:48:24.090Z,7.03
2023-01-08T04:49:05.804Z,6.32
2023-01-08T04:49:47.452Z,6.90
2023-01-08T04:50:29.099Z,6.70
2023-01-08T04:51:10.790Z,5.93
2023-01-08T04:51:52.454Z,5.78
2023-01-08T04:52:34.035Z,5.60
2023-01-08T04:53:15.630Z,6.35
2023-01-08T04:53:57.541Z,5.65
2023-01-08T04:54:39.156Z,6.30
2023-01-08T04:55:20.940Z,6.55
2023-01-08T04:56:05.223Z,6.30
2023-01-08T04:56:50.529Z,6.15
2023-01-08T04:57:32.925Z,6.45
2023-01-08T04:58:14.584Z,5.75
2023-01-08T04:58:56.199Z,6.05
2023-01-08T04:59:37.855Z,6.05
2023-01-08T05:00:19.521Z,6.30
2023-01-08T05:01:01.534Z,6.00
2023-01-08T05:01:43.348Z,6.82
2023-01-08T05:02:25.115Z,6.15
2023-01-08T05:03:06.867Z,5.70
2023-01-08T05:03:52.521Z,5.38
2023-01-08T05:04:34.220Z,6.38
2023-01-08T05:05:15.979Z,6.07
2023-01-08T05:06:00.851Z,7.03
2023-01-08T05:06:42.440Z,6.90
2023-01-08T05:07:24.016Z,6.65
2023-01-08T05:08:05.764Z,6.18
2023-01-08T05:08:47.501Z,6.00
2023-01-08T05:09:29.100Z,6.15
2023-01-08T05:10:10.787Z,6.45
2023-01-08T05:10:52.399Z,6.28
2023-01-08T05:11:35.507Z,6.15
2023-01-08T05:12:17.225Z,5.95
2023-01-08T05:13:01.882Z,6.18
2023-01-08T05:13:43.665Z,6.45
2023-01-08T05:14:25.331Z,6.60
2023-01-08T05:15:07.552Z,6.43
2023-01-08T05:15:49.244Z,6.15
2023-01-08T05:16:32.153Z,6.70
2023-01-08T05:17:13.888Z,6.13
2023-01-08T05:17:59.923Z,5.70
2023-01-08T05:18:41.616Z,6.38
2023-01-08T05:19:23.301Z,5.88
2023-01-08T05:20:05.289Z,5.97
2023-01-08T05:20:46.975Z,6.07
2023-01-08T05:21:28.629Z,6.50
2023-01-08T05:22:10.329Z,6.53
2023-01-08T05:22:52.095Z,6.40
2023-01-08T05:23:34.320Z,6.47
2023-01-08T05:24:16.090Z,6.70
2023-01-08T05:24:57.714Z,6.50
2023-01-08T05:25:39.314Z,6.68
2023-01-08T05:26:21.016Z,6.65
2023-01-08T05:27:02.606Z,6.50
2023-01-08T05:27:44.199Z,6.60
2023-01-08T05:28:26.411Z,6.80
2023-01-08T05:29:08.113Z,6.45
2023-01-08T05:29:51.003Z,6.47
2023-01-08T05:30:32.642Z,6.38
2023-01-08T05:31:14.729Z,6.80
2023-01-08T05:31:56.398Z,6.68
2023-01-08T05:32:38.023Z,6.43
2023-01-08T05:33:20.180Z,6.35
2023-01-08T05:34:01.940Z,6.68
2023-01-08T05:34:44.251Z,6.88
2023-01-08T05:35:25.903Z,6.38
2023-01-08T05:36:08.742Z,6.88
2023-01-08T05:36:50.413Z,7.10
2023-01-08T05:37:34.528Z,6.43
2023-01-08T05:38:16.213Z,6.97
2023-01-08T05:38:58.170Z,7.10
2023-01-08T05:39:39.780Z,7.28
2023-01-08T05:40:21.435Z,7.45
2023-01-08T05:41:03.422Z,7.18
2023-01-08T05:41:45.080Z,6.90
2023-01-08T05:42:26.803Z,7.63
2023-01-08T05:43:08.483Z,7.25
2023-01-08T05:43:50.208Z,7.80
2023-01-08T05:44:31.832Z,7.47
2023-01-08T05:45:15.588Z,7.07
2023-01-08T05:46:01.686Z,7.30
2023-01-08T05:46:43.421Z,7.38
2023-01-08T05:47:25.103Z,7.50
2023-01-08T05:48:07.636Z,8.55
2023-01-08T05:48:49.279Z,8.57
2023-01-08T05:49:30.907Z,8.10
2023-01-08T05:50:12.646Z,8.18
2023-01-08T05:50:54.293Z,7.65
2023-01-08T05:51:38.681Z,7.90
2023-01-08T05:52:20.365Z,8.35
2023-01-08T05:53:02.123Z,7.55
2023-01-08T05:53:43.750Z,8.00
2023-01-08T05:54:25.409Z,7.22
2023-01-08T05:55:07.312Z,10.40
2023-01-08T05:55:48.976Z,22.48
2023-01-08T05:56:30.663Z,26.48
2023-01-08T05:57:12.330Z,44.08
2023-01-08T05:57:54.032Z,74.65
2023-01-08T05:58:35.708Z,44.70
2023-01-08T05:59:17.345Z,20.85
2023-01-08T05:59:58.974Z,17.23
2023-01-08T06:00:40.598Z,13.25
2023-01-08T06:01:22.620Z,11.10
2023-01-08T06:02:04.239Z,14.85
2023-01-08T06:02:47.519Z,11.73
2023-01-08T06:03:29.215Z,10.60
2023-01-08T06:04:10.855Z,9.23
2023-01-08T06:04:52.634Z,7.85
2023-01-08T06:05:34.306Z,7.40
2023-01-08T06:06:16.712Z,7.00
2023-01-08T06:06:58.373Z,10.85
2023-01-08T06:07:39.991Z,12.43
2023-01-08T06:08:21.656Z,12.48
2023-01-08T06:09:03.564Z,13.00
2023-01-08T06:09:45.184Z,11.02
2023-01-08T06:10:27.339Z,8.32
2023-01-08T06:11:11.071Z,8.82
2023-01-08T06:11:53.128Z,7.50
2023-01-08T06:12:34.885Z,7.80
2023-01-08T06:13:16.583Z,7.90
2023-01-08T06:13:58.237Z,8.00
2023-01-08T06:14:39.854Z,8.80
2023-01-08T06:15:21.562Z,8.15
2023-01-08T06:16:03.462Z,6.78
2023-01-08T06:16:45.844Z,7.03
2023-01-08T06:17:27.446Z,7.20
2023-01-08T06:18:09.051Z,8.02
2023-01-08T06:18:50.884Z,8.18
2023-01-08T06:19:32.512Z,8.25
2023-01-08T06:20:14.093Z,8.00
2023-01-08T06:20:56.117Z,7.68
2023-01-08T06:21:38.271Z,7.57
2023-01-08T06:22:19.924Z,7.97
2023-01-08T06:23:01.519Z,8.15
2023-01-08T06:23:43.200Z,8.32
2023-01-08T06:24:24.868Z,8.30
2023-01-08T06:25:06.742Z,8.18
2023-01-08T06:25:53.838Z,7.88
2023-01-08T06:26:35.505Z,7.93
2023-01-08T06:27:17.134Z,8.63
2023-01-08T06:27:58.796Z,7.55
2023-01-08T06:28:40.445Z,8.20
2023-01-08T06:29:22.049Z,8.10
2023-01-08T06:30:04.640Z,8.00
2023-01-08T06:30:46.334Z,7.40
2023-01-08T06:31:28.074Z,7.68
2023-01-08T06:32:09.741Z,7.07
2023-01-08T06:32:58.406Z,7.13
2023-01-08T06:33:40.158Z,7.07
2023-01-08T06:34:21.846Z,6.93
2023-01-08T06:35:03.814Z,7.20
2023-01-08T06:35:45.445Z,7.32
2023-01-08T06:36:27.354Z,6.40
2023-01-08T06:37:08.954Z,7.07
2023-01-08T06:37:50.802Z,6.57
2023-01-08T06:38:34.359Z,7.22
2023-01-08T06:39:16.022Z,6.25
2023-01-08T06:39:57.595Z,6.38
2023-01-08T06:40:39.227Z,6.95
2023-01-08T06:41:20.855Z,6.95
2023-01-08T06:42:02.556Z,6.30
2023-01-08T06:42:44.594Z,6.13
2023-01-08T06:43:26.265Z,6.80
2023-01-08T06:44:08.184Z,6.70
2023-01-08T06:44:49.822Z,6.10
2023-01-08T06:45:32.576Z,6.03
2023-01-08T06:46:14.764Z,6.47
2023-01-08T06:46:59.722Z,6.50
2023-01-08T06:47:41.430Z,7.13
2023-01-08T06:48:23.031Z,7.05
2023-01-08T06:49:04.632Z,6.53
2023-01-08T06:49:46.306Z,6.28
2023-01-08T06:50:28.964Z,7.00
2023-01-08T06:51:10.628Z,5.72
2023-01-08T06:51:52.324Z,6.53
2023-01-08T06:52:33.976Z,6.47
2023-01-08T06:53:15.635Z,5.93
2023-01-08T06:53:57.288Z,6.10
2023-01-08T06:54:39.000Z,6.10
2023-01-08T06:55:21.711Z,6.53
2023-01-08T06:56:04.379Z,6.45
2023-01-08T06:56:53.782Z,6.20
2023-01-08T06:57:35.825Z,6.50
2023-01-08T06:58:17.407Z,6.78
2023-01-08T06:58:59.059Z,6.28
2023-01-08T06:59:40.706Z,5.95
2023-01-08T07:00:26.302Z,6.10
2023-01-08T07:01:13.768Z,6.00
2023-01-08T07:01:55.519Z,6.53
2023-01-08T07:02:37.390Z,5.78
2023-01-08T07:03:19.755Z,6.03
2023-01-08T07:04:01.396Z,6.35
2023-01-08T07:04:43.159Z,6.28
2023-01-08T07:05:24.796Z,6.40
2023-01-08T07:06:06.818Z,6.05
2023-01-08T07:06:48.664Z,6.60
2023-01-08T07:07:30.353Z,6.68
2023-01-08T07:08:14.829Z,6.07
2023-01-08T07:08:56.873Z,6.60
2023-01-08T07:09:38.475Z,6.88
2023-01-08T07:10:20.363Z,6.25
2023-01-08T07:11:06.472Z,6.22
2023-01-08T07:11:48.117Z,6.13
2023-01-08T07:12:29.747Z,6.72
2023-01-08T07:13:12.796Z,7.03
2023-01-08T07:13:55.758Z,7.38
2023-01-08T07:14:37.452Z,6.53
2023-01-08T07:15:19.104Z,6.97
2023-01-08T07:16:13.145Z,6.25
2023-01-08T07:16:54.735Z,5.95
2023-01-08T07:17:37.170Z,6.03
2023-01-08T07:18:18.801Z,6.57
2023-01-08T07:19:00.533Z,7.50
2023-01-08T07:19:43.645Z,7.38
2023-01-08T07:20:25.237Z,7.40
2023-01-08T07:21:07.853Z,7.32
2023-01-08T07:21:49.445Z,7.25
2023-01-08T07:22:31.224Z,7.43
2023-01-08T07:23:12.876Z,6.97
2023-01-08T07:23:54.556Z,7.50
2023-01-08T07:24:36.207Z,9.98
2023-01-08T07:25:17.933Z,9.43
2023-01-08T07:26:02.720Z,8.25
2023-01-08T07:26:44.395Z,8.40
2023-01-08T07:27:26.357Z,7.55
2023-01-08T07:28:12.652Z,7.55
2023-01-08T07:28:54.288Z,7.35
2023-01-08T07:29:35.893Z,6.57
2023-01-08T07:30:28.741Z,10.75
2023-01-08T07:31:10.885Z,14.63
2023-01-08T07:31:52.719Z,20.95
2023-01-08T07:32:34.339Z,28.27
2023-01-08T07:33:15.941Z,19.85
2023-01-08T07:33:57.524Z,12.30
2023-01-08T07:34:39.162Z,10.15
2023-01-08T07:35:20.831Z,9.30
2023-01-08T07:36:02.911Z,8.32
2023-01-08T07:36:44.680Z,7.95
2023-01-08T07:37:26.614Z,8.27
2023-01-08T07:38:08.229Z,7.65
2023-01-08T07:38:50.187Z,8.15
2023-01-08T07:39:32.183Z,8.65
2023-01-08T07:40:13.861Z,8.32
2023-01-08T07:40:57.643Z,8.50
2023-01-08T07:41:39.267Z,26.70
2023-01-08T07:42:20.920Z,34.08
2023-01-08T07:43:04.353Z,34.92
2023-01-08T07:43:48.146Z,27.98
2023-01-08T07:44:29.717Z,28.23
2023-01-08T07:45:11.609Z,61.42
2023-01-08T07:45:53.254Z,59.75
2023-01-08T07:46:34.997Z,135.52
2023-01-08T07:47:16.688Z,152.85
2023-01-08T07:47:58.982Z,165.98
2023-01-08T07:48:40.792Z,143.02
2023-01-08T07:49:22.410Z,87.28
2023-01-08T07:50:04.355Z,62.35
2023-01-08T07:50:46.067Z,47.20
2023-01-08T07:51:27.824Z,40.47
2023-01-08T07:52:09.496Z,31.88
2023-01-08T07:52:51.183Z,65.38
2023-01-08T07:53:33.329Z,98.15
2023-01-08T07:54:14.983Z,79.38
2023-01-08T07:54:56.559Z,64.82
2023-01-08T07:55:38.563Z,54.60
2023-01-08T07:56:20.193Z,76.53
2023-01-08T07:57:01.790Z,47.83
2023-01-08T07:57:43.420Z,69.97
2023-01-08T07:58:25.115Z,79.90
2023-01-08T07:59:06.699Z,84.97
2023-01-08T07:59:48.453Z,84.45
2023-01-08T08:00:30.095Z,82.95
2023-01-08T08:01:12.323Z,67.70
2023-01-08T08:01:54.195Z,51.63
2023-01-08T08:02:36.074Z,47.75
2023-01-08T08:03:17.808Z,45.50
2023-01-08T08:03:59.442Z,47.42
2023-01-08T08:04:41.033Z,53.70
2023-01-08T08:05:22.742Z,47.55
2023-01-08T08:06:04.589Z,45.38
2023-01-08T08:06:46.235Z,24.95
2023-01-08T08:07:30.881Z,19.48
2023-01-08T08:08:13.497Z,16.85
2023-01-08T08:08:57.308Z,14.57
2023-01-08T08:09:39.189Z,12.00
2023-01-08T08:10:20.835Z,11.90
2023-01-08T08:11:03.183Z,12.98
2023-01-08T08:11:44.814Z,11.10
2023-01-08T08:12:26.471Z,11.35
2023-01-08T08:13:08.467Z,11.73
2023-01-08T08:13:52.423Z,11.82
2023-01-08T08:14:36.002Z,11.80
2023-01-08T08:15:17.710Z,11.73
2023-01-08T08:16:04.078Z,15.25
2023-01-08T08:16:45.849Z,15.60
2023-01-08T08:17:27.516Z,19.33
2023-01-08T08:18:09.635Z,20.45
2023-01-08T08:18:51.241Z,22.17
2023-01-08T08:19:32.805Z,21.77
2023-01-08T08:20:15.066Z,23.05
2023-01-08T08:20:58.018Z,26.70
2023-01-08T08:21:39.755Z,24.25
2023-01-08T08:22:21.427Z,22.90
2023-01-08T08:23:05.183Z,22.40
2023-01-08T08:23:46.746Z,21.52
2023-01-08T08:24:28.348Z,20.23
2023-01-08T08:25:10.065Z,17.08
2023-01-08T08:25:52.164Z,14.52
2023-01-08T08:26:33.828Z,14.23
2023-01-08T08:27:15.414Z,12.35
2023-01-08T08:27:58.911Z,12.00
2023-01-08T08:28:40.584Z,10.38
2023-01-08T08:29:22.193Z,10.60
2023-01-08T08:30:06.047Z,9.90
2023-01-08T08:30:47.760Z,9.35
2023-01-08T08:31:29.542Z,9.27
2023-01-08T08:32:11.189Z,9.40
2023-01-08T08:32:53.734Z,9.52
2023-01-08T08:33:35.312Z,9.13
2023-01-08T08:34:16.906Z,8.90
2023-01-08T08:34:58.567Z,8.85
2023-01-08T08:35:40.950Z,8.98
2023-01-08T08:36:28.442Z,9.52
2023-01-08T08:37:10.056Z,8.75
2023-01-08T08:37:51.729Z,8.45
2023-01-08T08:38:33.615Z,7.78
2023-01-08T08:39:15.371Z,7.70
2023-01-08T08:39:56.917Z,7.88
2023-01-08T08:40:38.502Z,7.95
2023-01-08T08:41:20.133Z,8.38
2023-01-08T08:42:01.717Z,7.80
2023-01-08T08:42:43.303Z,7.28
2023-01-08T08:43:24.884Z,8.15
2023-01-08T08:44:06.509Z,8.90
2023-01-08T08:44:48.152Z,8.95
2023-01-08T08:45:29.903Z,8.30
2023-01-08T08:46:11.651Z,8.35
2023-01-08T08:46:53.347Z,7.68
2023-01-08T08:47:35.067Z,7.93
2023-01-08T08:48:16.854Z,7.70
2023-01-08T08:48:58.475Z,6.95
2023-01-08T08:49:40.216Z,7.70
2023-01-08T08:50:22.210Z,7.43
2023-01-08T08:51:04.443Z,6.90
2023-01-08T08:51:46.140Z,7.15
2023-01-08T08:52:29.376Z,6.40
2023-01-08T08:53:11.106Z,6.50
2023-01-08T08:53:52.840Z,7.20
2023-01-08T08:54:34.476Z,7.60
2023-01-08T08:55:17.462Z,7.55
2023-01-08T08:55:59.302Z,7.18
2023-01-08T08:56:40.925Z,7.38
2023-01-08T08:57:27.044Z,7.03
2023-01-08T08:58:11.721Z,7.43
2023-01-08T08:58:53.330Z,8.18
2023-01-08T08:59:35.249Z,7.25
2023-01-08T09:00:17.101Z,7.72
2023-01-08T09:01:03.751Z,8.50
2023-01-08T09:01:45.612Z,8.80
2023-01-08T09:02:27.447Z,9.35
2023-01-08T09:03:13.716Z,9.43
2023-01-08T09:03:55.383Z,8.25
2023-01-08T09:04:37.018Z,9.20
2023-01-08T09:05:18.666Z,8.77
2023-01-08T09:06:00.511Z,9.32
2023-01-08T09:06:44.238Z,8.80
2023-01-08T09:07:25.921Z,8.32
2023-01-08T09:08:07.656Z,8.30
2023-01-08T09:08:49.355Z,8.75
2023-01-08T09:09:31.069Z,8.63
2023-01-08T09:10:12.872Z,8.68
2023-01-08T09:10:54.581Z,10.48
2023-01-08T09:11:36.360Z,10.75
2023-01-08T09:12:18.040Z,10.10
2023-01-08T09:12:59.689Z,10.05
2023-01-08T09:13:41.289Z,10.07
2023-01-08T09:14:22.992Z,10.85
2023-01-08T09:15:05.378Z,9.52
2023-01-08T09:15:47.136Z,10.40
2023-01-08T09:16:28.848Z,8.80
2023-01-08T09:17:10.532Z,10.30
2023-01-08T09:17:56.599Z,11.27
2023-01-08T09:18:38.228Z,11.65
2023-01-08T09:19:19.932Z,11.82
2023-01-08T09:20:05.337Z,10.45
2023-01-08T09:20:48.103Z,10.38
2023-01-08T09:21:29.696Z,11.88
2023-01-08T09:22:11.321Z,13.90
2023-01-08T09:22:52.999Z,11.02
2023-01-08T09:23:35.580Z,8.65
2023-01-08T09:24:17.283Z,8.20
2023-01-08T09:24:58.936Z,8.20
2023-01-08T09:25:40.533Z,7.57
2023-01-08T09:26:22.141Z,9.30
2023-01-08T09:27:03.737Z,9.23
2023-01-08T09:27:45.648Z,9.13
2023-01-08T09:28:27.306Z,9.00
2023-01-08T09:29:09.022Z,10.65
2023-01-08T09:29:50.656Z,10.88
2023-01-08T09:30:33.171Z,9.75
2023-01-08T09:31:14.843Z,11.98
2023-01-08T09:31:57.422Z,11.50
2023-01-08T09:32:39.300Z,11.93
2023-01-08T09:33:20.977Z,11.70
2023-01-08T09:34:02.602Z,11.73
2023-01-08T09:34:44.250Z,10.43
2023-01-08T09:35:26.138Z,10.85
2023-01-08T09:36:14.022Z,10.10
2023-01-08T09:36:55.689Z,9.63
2023-01-08T09:37:37.387Z,9.55
2023-01-08T09:38:19.077Z,9.20
2023-01-08T09:39:01.306Z,9.13
2023-01-08T09:39:48.029Z,8.55
2023-01-08T09:40:37.960Z,7.85
2023-01-08T09:41:33.622Z,8.50
2023-01-08T09:42:16.386Z,9.43
2023-01-08T09:43:01.401Z,10.57
2023-01-08T09:43:46.915Z,10.75
2023-01-08T09:44:35.137Z,11.32
2023-01-08T09:45:33.241Z,10.00
2023-01-08T09:46:15.723Z,10.52
2023-01-08T09:46:58.332Z,11.38
2023-01-08T09:47:43.364Z,12.07
2023-01-08T09:48:31.188Z,12.70
2023-01-08T09:49:21.023Z,12.70
2023-01-08T09:50:06.932Z,12.00
2023-01-08T09:50:49.123Z,11.60
2023-01-08T09:51:38.304Z,10.50
2023-01-08T09:52:20.349Z,10.50
2023-01-08T09:53:02.465Z,9.20
2023-01-08T09:53:45.039Z,8.93
2023-01-08T09:54:27.344Z,9.30
2023-01-08T09:55:16.515Z,9.55
2023-01-08T09:56:10.212Z,9.85
2023-01-08T09:56:52.817Z,11.38
2023-01-08T09:57:34.511Z,10.57
2023-01-08T09:58:28.593Z,11.02
2023-01-08T09:59:16.634Z,10.10
2023-01-08T09:59:58.623Z,11.52
2023-01-08T10:00:40.308Z,10.10
2023-01-08T10:01:25.245Z,10.80
2023-01-08T10:02:15.346Z,10.90
2023-01-08T10:02:58.169Z,11.57
2023-01-08T10:03:44.172Z,12.95
2023-01-08T10:04:27.044Z,12.02
2023-01-08T10:05:15.300Z,13.05
2023-01-08T10:05:57.018Z,15.50
2023-01-08T10:06:40.603Z,15.15
2023-01-08T10:07:24.647Z,14.25
2023-01-08T10:08:06.377Z,14.30
2023-01-08T10:08:50.399Z,63.60
2023-01-08T10:09:33.178Z,73.97
2023-01-08T10:10:25.290Z,70.60
2023-01-08T10:11:09.029Z,61.75
2023-01-08T10:11:53.463Z,44.65
2023-01-08T10:12:35.174Z,42.03
2023-01-08T10:13:16.802Z,40.10
2023-01-08T10:13:58.497Z,23.85
2023-01-08T10:14:47.891Z,16.58
2023-01-08T10:15:29.620Z,16.48
2023-01-08T10:16:21.950Z,16.33
2023-01-08T10:17:30.877Z,16.65
2023-01-08T10:18:14.215Z,16.65
2023-01-08T10:18:56.707Z,19.48
2023-01-08T10:19:38.649Z,17.35
2023-01-08T10:20:23.353Z,16.63
2023-01-08T10:21:05.514Z,16.63
2023-01-08T10:21:47.201Z,17.60
2023-01-08T10:22:33.794Z,21.10
2023-01-08T10:23:18.173Z,23.50
2023-01-08T10:23:59.864Z,23.70
2023-01-08T10:24:41.494Z,31.63
2023-01-08T10:25:28.252Z,28.55
2023-01-08T10:26:09.891Z,29.05
2023-01-08T10:26:53.122Z,28.27
2023-01-08T10:27:50.359Z,29.42
2023-01-08T10:28:37.895Z,28.98
2023-01-08T10:29:19.562Z,20.60
2023-01-08T10:30:06.804Z,22.55
2023-01-08T10:30:50.086Z,17.67
2023-01-08T10:31:32.451Z,14.45
2023-01-08T10:32:19.063Z,12.85
2023-01-08T10:33:06.247Z,10.90
2023-01-08T10:33:49.391Z,12.18
2023-01-08T10:34:39.612Z,27.17
2023-01-08T10:35:28.918Z,31.05
2023-01-08T10:36:14.376Z,25.42
2023-01-08T10:36:56.680Z,26.60
2023-01-08T10:37:42.302Z,30.98
2023-01-08T10:38:28.320Z,19.60
2023-01-08T10:39:21.627Z,14.10
2023-01-08T10:40:37.660Z,14.77
2023-01-08T10:41:19.754Z,11.35
2023-01-08T10:42:06.571Z,12.27
2023-01-08T10:42:49.124Z,14.13
2023-01-08T10:43:37.549Z,21.30
2023-01-08T10:44:22.454Z,19.27
2023-01-08T10:45:07.793Z,15.05
2023-01-08T10:46:00.425Z,13.10
2023-01-08T10:46:48.249Z,12.32
2023-01-08T10:47:33.880Z,15.23
2023-01-08T10:48:18.341Z,19.75
2023-01-08T10:49:02.411Z,10.15
2023-01-08T10:49:45.426Z,6.68
2023-01-08T10:50:32.827Z,6.53
2023-01-08T10:51:33.269Z,6.78
2023-01-08T10:52:32.760Z,6.28
2023-01-08T10:53:26.235Z,6.25
2023-01-08T10:54:41.461Z,5.38
2023-01-08T10:55:23.072Z,5.82
2023-01-08T10:56:05.364Z,5.90
2023-01-08T10:56:47.015Z,5.72
2023-01-08T10:57:30.805Z,6.10
2023-01-08T10:58:15.142Z,6.03
2023-01-08T10:58:57.482Z,5.38
2023-01-08T10:59:42.270Z,5.60
2023-01-08T11:00:32.634Z,4.43
2023-01-08T11:01:32.869Z,5.18
2023-01-08T11:02:40.241Z,2.78
2023-01-08T11:03:32.711Z,3.65
2023-01-08T11:04:35.411Z,2.20
2023-01-08T11:05:17.430Z,2.80
2023-01-08T11:05:59.305Z,1.90
2023-01-08T11:06:47.116Z,1.70
2023-01-08T11:07:30.051Z,1.60
2023-01-08T11:08:17.890Z,1.25
2023-01-08T11:09:01.942Z,1.17
2023-01-08T11:09:48.573Z,1.50
2023-01-08T11:10:30.351Z,1.23
2023-01-08T11:11:12.242Z,1.42
2023-01-08T11:11:57.489Z,1.15
2023-01-08T11:12:41.045Z,1.40
2023-01-08T11:13:23.684Z,1.67
2023-01-08T11:14:14.793Z,2.65
2023-01-08T11:14:56.980Z,2.75
2023-01-08T11:15:41.224Z,2.17
2023-01-08T11:16:30.339Z,1.52
2023-01-08T11:17:12.893Z,1.60
2023-01-08T11:17:54.601Z,1.20
2023-01-08T11:18:47.797Z,1.40
2023-01-08T11:19:32.145Z,1.30
2023-01-08T11:20:29.554Z,1.27
2023-01-08T11:21:20.692Z,1.30
2023-01-08T11:22:17.869Z,1.02
2023-01-08T11:23:16.463Z,1.10
2023-01-08T11:24:23.647Z,1.33
2023-01-08T11:25:14.066Z,1.42
2023-01-08T11:26:10.157Z,1.02
2023-01-08T11:27:01.252Z,0.90
2023-01-08T11:27:45.393Z,1.08
2023-01-08T11:28:38.400Z,1.35
2023-01-08T11:29:30.959Z,1.65
2023-01-08T11:30:23.323Z,1.88
2023-01-08T11:31:19.196Z,1.40
2023-01-08T11:32:27.971Z,1.80
2023-01-08T11:33:16.831Z,1.35
2023-01-08T11:34:07.688Z,2.10
2023-01-08T11:35:04.721Z,2.10
2023-01-08T11:35:53.103Z,1.85
2023-01-08T11:36:43.914Z,1.80
2023-01-08T11:37:33.584Z,1.63
2023-01-08T11:38:15.694Z,2.00
2023-01-08T11:38:57.282Z,1.88
2023-01-08T11:39:39.179Z,1.75
2023-01-08T11:41:10.107Z,2.47
2023-01-08T11:42:10.094Z,2.35
2023-01-08T11:43:19.323Z,2.30
2023-01-08T11:44:23.741Z,2.50
2023-01-08T11:45:42.597Z,3.25
2023-01-08T11:46:56.420Z,3.10
2023-01-08T11:48:03.838Z,2.42
2023-01-08T11:49:16.349Z,2.47
2023-01-08T11:50:03.358Z,2.38
2023-01-08T11:51:15.310Z,2.50
2023-01-08T11:51:59.557Z,3.25
2023-01-08T11:52:48.546Z,2.40
2023-01-08T11:53:42.720Z,2.45
2023-01-08T11:54:37.843Z,3.65
2023-01-08T11:55:45.526Z,3.03
2023-01-08T11:56:30.301Z,4.10
2023-01-08T11:57:44.436Z,6.72
2023-01-08T11:58:46.306Z,11.73
2023-01-08T12:00:02.991Z,8.75
2023-01-08T12:01:11.319Z,6.55
2023-01-08T12:02:30.439Z,3.83
2023-01-08T12:03:42.224Z,2.90
2023-01-08T12:04:46.712Z,3.25
2023-01-08T12:05:36.509Z,2.50
2023-01-08T12:06:41.895Z,2.60
2023-01-08T12:07:29.420Z,2.60
2023-01-08T12:08:19.716Z,2.40
2023-01-08T12:09:18.945Z,2.85
2023-01-08T12:10:34.406Z,2.35
2023-01-08T12:11:15.989Z,2.50
2023-01-08T12:12:15.128Z,8.60
2023-01-08T12:13:03.236Z,4.05
2023-01-08T12:13:50.618Z,3.05
2023-01-08T12:15:07.427Z,3.17
2023-01-08T12:16:11.898Z,2.97
2023-01-08T12:17:12.337Z,2.38
2023-01-08T12:18:31.387Z,2.00
2023-01-08T12:19:22.067Z,2.00
2023-01-08T12:20:03.629Z,1.90
2023-01-08T12:21:03.287Z,2.10
2023-01-08T12:22:11.637Z,2.20
2023-01-08T12:23:07.694Z,7.93
2023-01-08T12:24:12.046Z,5.10
2023-01-08T12:25:11.910Z,3.35
2023-01-08T12:26:17.583Z,2.30
2023-01-08T12:27:09.474Z,2.10
2023-01-08T12:28:15.722Z,2.00
2023-01-08T12:29:35.113Z,2.15
2023-01-08T12:30:31.864Z,2.80
2023-01-08T12:32:02.950Z,1.90
2023-01-08T12:32:55.915Z,2.15
2023-01-08T12:33:43.549Z,1.77
2023-01-08T12:34:30.875Z,1.55
2023-01-08T12:35:17.130Z,1.90
2023-01-08T12:36:02.381Z,1.40
2023-01-08T12:36:49.961Z,1.40
2023-01-08T12:38:02.040Z,1.40
2023-01-08T12:38:50.181Z,1.00
2023-01-08T12:39:45.990Z,1.30
2023-01-08T12:40:33.535Z,1.50
2023-01-08T12:41:19.317Z,1.30
2023-01-08T12:42:11.274Z,2.33
2023-01-08T12:43:00.427Z,1.75
2023-01-08T12:44:04.940Z,1.90
2023-01-08T12:44:47.662Z,1.95
2023-01-08T12:45:32.381Z,1.85
2023-01-08T12:46:17.022Z,2.20
2023-01-08T12:47:02.578Z,1.60
2023-01-08T12:47:50.994Z,1.80
2023-01-08T12:48:36.639Z,4.93
2023-01-08T12:49:29.834Z,4.78
2023-01-08T12:50:14.506Z,16.85
2023-01-08T12:51:28.425Z,6.82
2023-01-08T12:52:20.744Z,3.42
2023-01-08T12:53:13.899Z,2.55
2023-01-08T12:54:27.897Z,1.90
2023-01-08T12:55:35.676Z,5.03
2023-01-08T12:57:16.516Z,1.95
2023-01-08T12:58:12.349Z,1.52
2023-01-08T12:59:07.093Z,1.35
2023-01-08T12:59:59.910Z,1.90
2023-01-08T13:00:51.839Z,3.17
2023-01-08T13:01:36.374Z,2.72
2023-01-08T13:02:49.289Z,3.20
2023-01-08T13:03:34.292Z,1.98
2023-01-08T13:04:16.632Z,2.35
2023-01-08T13:04:58.484Z,2.20
2023-01-08T13:05:42.241Z,2.20
2023-01-08T13:06:24.259Z,1.80
2023-01-08T13:07:06.074Z,2.15
2023-01-08T13:07:54.288Z,1.67
2023-01-08T13:08:38.046Z,1.52
2023-01-08T13:09:24.627Z,1.67
2023-01-08T13:10:19.079Z,1.40
2023-01-08T13:11:01.584Z,1.42
2023-01-08T13:11:50.848Z,1.98
2023-01-08T13:12:40.939Z,2.05
2023-01-08T13:13:32.037Z,1.80
2023-01-08T13:14:13.968Z,1.77
2023-01-08T13:14:55.720Z,1.35
2023-01-08T13:15:37.573Z,1.45
2023-01-08T13:16:22.647Z,1.38
2023-01-08T13:17:07.876Z,1.48
2023-01-08T13:17:51.046Z,1.42
2023-01-08T13:18:33.374Z,1.40
2023-01-08T13:19:31.467Z,1.13
2023-01-08T13:20:30.370Z,1.10
2023-01-08T13:21:12.826Z,1.05
2023-01-08T13:21:57.304Z,1.20
2023-01-08T13:22:39.402Z,1.05
2023-01-08T13:23:34.869Z,1.05
2023-01-08T13:24:31.918Z,0.90
2023-01-08T13:25:20.061Z,1.23
2023-01-08T13:26:04.849Z,1.50
2023-01-08T13:26:46.634Z,1.75
2023-01-08T13:27:29.558Z,1.50
2023-01-08T13:28:29.786Z,1.33
2023-01-08T13:29:35.545Z,1.48
2023-01-08T13:30:42.471Z,1.52
2023-01-08T13:31:28.030Z,1.45